sensor_id;sensor_type;location;lat;lon;timestamp;pressure;altitude;pressure_sealevel;temperature;humidity
71105;BME280;58760;48.716;8.962;2023-12-28T00:01:44;96600.19;;;4.97;100.00
71105;BME280;58760;48.716;8.962;2023-12-28T00:04:09;96593.78;;;4.71;100.00
71105;BME280;58760;48.716;8.962;2023-12-28T00:06:34;96588.47;;;4.52;100.00
71105;BME280;58760;48.716;8.962;2023-12-28T00:09:00;96584.88;;;4.53;100.00
71105;BME280;58760;48.716;8.962;2023-12-28T00:11:26;96584.34;;;4.78;100.00
71105;BME280;58760;48.716;8.962;2023-12-28T00:13:51;96590.59;;;4.77;100.00
71105;BME280;58760;48.716;8.962;2023-12-28T00:16:17;96589.75;;;4.67;100.00
71105;BME280;58760;48.716;8.962;2023-12-28T00:18:42;96592.22;;;4.59;100.00
71105;BME280;58760;48.716;8.962;2023-12-28T00:21:08;96599.44;;;4.66;100.00
71105;BME280;58760;48.716;8.962;2023-12-28T00:23:33;96593.50;;;4.64;100.00
71105;BME280;58760;48.716;8.962;2023-12-28T00:25:59;96589.47;;;4.60;100.00
71105;BME280;58760;48.716;8.962;2023-12-28T00:28:24;96593.72;;;4.52;100.00
71105;BME280;58760;48.716;8.962;2023-12-28T00:30:49;96598.38;;;4.29;100.00
71105;BME280;58760;48.716;8.962;2023-12-28T00:33:15;96609.59;;;4.10;100.00
71105;BME280;58760;48.716;8.962;2023-12-28T00:35:40;96612.84;;;3.93;100.00
71105;BME280;58760;48.716;8.962;2023-12-28T00:38:05;96603.28;;;3.92;100.00
71105;BME280;58760;48.716;8.962;2023-12-28T00:40:31;96608.44;;;4.03;100.00
71105;BME280;58760;48.716;8.962;2023-12-28T00:42:56;96611.53;;;4.08;100.00
71105;BME280;58760;48.716;8.962;2023-12-28T00:45:21;96610.53;;;4.00;100.00
71105;BME280;58760;48.716;8.962;2023-12-28T00:47:47;96612.47;;;3.77;100.00
71105;BME280;58760;48.716;8.962;2023-12-28T00:50:12;96613.06;;;3.60;100.00
71105;BME280;58760;48.716;8.962;2023-12-28T00:52:40;96612.19;;;3.39;100.00
71105;BME280;58760;48.716;8.962;2023-12-28T00:55:06;96618.47;;;3.27;100.00
71105;BME280;58760;48.716;8.962;2023-12-28T00:57:33;96624.69;;;2.83;100.00
71105;BME280;58760;48.716;8.962;2023-12-28T00:59:58;96631.63;;;2.73;100.00
71105;BME280;58760;48.716;8.962;2023-12-28T01:02:23;96626.28;;;2.41;100.00
71105;BME280;58760;48.716;8.962;2023-12-28T01:04:49;96636.91;;;2.39;100.00
71105;BME280;58760;48.716;8.962;2023-12-28T01:07:14;96644.16;;;2.47;100.00
71105;BME280;58760;48.716;8.962;2023-12-28T01:09:39;96647.75;;;2.24;100.00
71105;BME280;58760;48.716;8.962;2023-12-28T01:12:05;96652.50;;;2.19;100.00
71105;BME280;58760;48.716;8.962;2023-12-28T01:14:31;96645.13;;;2.35;100.00
71105;BME280;58760;48.716;8.962;2023-12-28T01:16:56;96647.97;;;2.43;100.00
71105;BME280;58760;48.716;8.962;2023-12-28T01:19:22;96650.47;;;2.67;100.00
71105;BME280;58760;48.716;8.962;2023-12-28T01:21:49;96654.38;;;2.72;100.00
71105;BME280;58760;48.716;8.962;2023-12-28T01:24:14;96649.88;;;2.63;100.00
71105;BME280;58760;48.716;8.962;2023-12-28T01:26:40;96653.19;;;2.54;100.00
71105;BME280;58760;48.716;8.962;2023-12-28T01:29:05;96652.03;;;2.47;100.00
71105;BME280;58760;48.716;8.962;2023-12-28T01:31:30;96653.69;;;2.59;100.00
71105;BME280;58760;48.716;8.962;2023-12-28T01:33:56;96646.00;;;2.89;100.00
71105;BME280;58760;48.716;8.962;2023-12-28T01:36:22;96648.84;;;3.29;100.00
71105;BME280;58760;48.716;8.962;2023-12-28T01:38:48;96639.47;;;3.68;100.00
71105;BME280;58760;48.716;8.962;2023-12-28T01:41:13;96638.81;;;4.27;100.00
71105;BME280;58760;48.716;8.962;2023-12-28T01:43:41;96635.78;;;4.52;100.00
71105;BME280;58760;48.716;8.962;2023-12-28T01:46:09;96643.25;;;4.56;100.00
71105;BME280;58760;48.716;8.962;2023-12-28T01:48:36;96637.03;;;4.57;100.00
71105;BME280;58760;48.716;8.962;2023-12-28T01:51:02;96642.97;;;4.59;100.00
71105;BME280;58760;48.716;8.962;2023-12-28T01:53:28;96639.94;;;4.64;100.00
71105;BME280;58760;48.716;8.962;2023-12-28T01:55:54;96635.81;;;4.71;100.00
71105;BME280;58760;48.716;8.962;2023-12-28T01:58:20;96642.91;;;4.80;100.00
71105;BME280;58760;48.716;8.962;2023-12-28T02:00:46;96650.22;;;4.77;100.00
71105;BME280;58760;48.716;8.962;2023-12-28T02:03:12;96650.19;;;4.67;100.00
71105;BME280;58760;48.716;8.962;2023-12-28T02:05:37;96660.38;;;4.51;100.00
71105;BME280;58760;48.716;8.962;2023-12-28T02:08:03;96666.88;;;4.26;100.00
71105;BME280;58760;48.716;8.962;2023-12-28T02:10:28;96674.84;;;4.15;100.00
71105;BME280;58760;48.716;8.962;2023-12-28T02:12:54;96669.66;;;4.25;100.00
71105;BME280;58760;48.716;8.962;2023-12-28T02:15:21;96662.19;;;4.30;100.00
71105;BME280;58760;48.716;8.962;2023-12-28T02:18:01;96673.06;;;4.15;100.00
71105;BME280;58760;48.716;8.962;2023-12-28T02:20:29;96665.94;;;4.27;100.00
71105;BME280;58760;48.716;8.962;2023-12-28T02:22:56;96664.50;;;4.44;100.00
71105;BME280;58760;48.716;8.962;2023-12-28T02:25:22;96666.19;;;4.54;100.00
71105;BME280;58760;48.716;8.962;2023-12-28T02:27:49;96661.13;;;4.72;100.00
71105;BME280;58760;48.716;8.962;2023-12-28T02:30:17;96663.06;;;4.70;100.00
71105;BME280;58760;48.716;8.962;2023-12-28T02:35:45;96659.81;;;4.87;100.00
71105;BME280;58760;48.716;8.962;2023-12-28T02:38:14;96654.81;;;4.84;100.00
71105;BME280;58760;48.716;8.962;2023-12-28T02:40:43;96648.31;;;4.88;100.00
71105;BME280;58760;48.716;8.962;2023-12-28T02:43:10;96646.69;;;5.06;100.00
71105;BME280;58760;48.716;8.962;2023-12-28T02:45:36;96636.75;;;5.58;100.00
71105;BME280;58760;48.716;8.962;2023-12-28T02:48:03;96630.91;;;5.93;100.00
71105;BME280;58760;48.716;8.962;2023-12-28T02:50:28;96629.09;;;5.84;100.00
71105;BME280;58760;48.716;8.962;2023-12-28T02:52:57;96640.47;;;5.74;100.00
71105;BME280;58760;48.716;8.962;2023-12-28T02:55:22;96645.84;;;5.82;100.00
71105;BME280;58760;48.716;8.962;2023-12-28T02:57:50;96646.16;;;5.70;100.00
71105;BME280;58760;48.716;8.962;2023-12-28T03:00:16;96636.31;;;6.01;100.00
71105;BME280;58760;48.716;8.962;2023-12-28T03:02:41;96636.84;;;6.04;100.00
71105;BME280;58760;48.716;8.962;2023-12-28T03:05:07;96637.28;;;6.00;100.00
71105;BME280;58760;48.716;8.962;2023-12-28T03:07:33;96637.53;;;6.06;100.00
71105;BME280;58760;48.716;8.962;2023-12-28T03:09:59;96641.69;;;5.99;100.00
71105;BME280;58760;48.716;8.962;2023-12-28T03:12:25;96634.63;;;6.00;100.00
71105;BME280;58760;48.716;8.962;2023-12-28T03:14:50;96639.34;;;5.96;100.00
71105;BME280;58760;48.716;8.962;2023-12-28T03:17:16;96632.25;;;6.06;100.00
71105;BME280;58760;48.716;8.962;2023-12-28T03:19:41;96630.63;;;5.96;100.00
71105;BME280;58760;48.716;8.962;2023-12-28T03:22:07;96632.66;;;6.11;100.00
71105;BME280;58760;48.716;8.962;2023-12-28T03:24:32;96629.34;;;6.09;100.00
71105;BME280;58760;48.716;8.962;2023-12-28T03:26:58;96633.34;;;6.13;100.00
71105;BME280;58760;48.716;8.962;2023-12-28T03:29:23;96644.84;;;6.12;100.00
71105;BME280;58760;48.716;8.962;2023-12-28T03:31:49;96647.78;;;6.09;100.00
71105;BME280;58760;48.716;8.962;2023-12-28T03:34:15;96647.69;;;6.01;100.00
71105;BME280;58760;48.716;8.962;2023-12-28T03:36:40;96650.84;;;6.14;100.00
71105;BME280;58760;48.716;8.962;2023-12-28T03:39:05;96643.91;;;6.13;100.00
71105;BME280;58760;48.716;8.962;2023-12-28T03:41:31;96638.84;;;6.29;100.00
71105;BME280;58760;48.716;8.962;2023-12-28T03:43:57;96637.31;;;6.37;100.00
71105;BME280;58760;48.716;8.962;2023-12-28T03:46:22;96628.59;;;6.26;100.00
71105;BME280;58760;48.716;8.962;2023-12-28T03:48:48;96628.59;;;6.26;100.00
71105;BME280;58760;48.716;8.962;2023-12-28T03:51:14;96626.84;;;6.17;100.00
71105;BME280;58760;48.716;8.962;2023-12-28T03:53:43;96624.16;;;6.27;100.00
71105;BME280;58760;48.716;8.962;2023-12-28T03:56:21;96628.59;;;6.26;100.00
71105;BME280;58760;48.716;8.962;2023-12-28T03:58:46;96616.72;;;6.50;100.00
71105;BME280;58760;48.716;8.962;2023-12-28T04:01:12;96621.53;;;6.54;100.00
71105;BME280;58760;48.716;8.962;2023-12-28T04:03:37;96610.31;;;6.52;100.00
71105;BME280;58760;48.716;8.962;2023-12-28T04:06:03;96610.03;;;6.55;100.00
71105;BME280;58760;48.716;8.962;2023-12-28T04:08:28;96612.66;;;6.55;100.00
71105;BME280;58760;48.716;8.962;2023-12-28T04:10:55;96625.38;;;6.32;100.00
71105;BME280;58760;48.716;8.962;2023-12-28T04:13:20;96617.06;;;6.27;100.00
71105;BME280;58760;48.716;8.962;2023-12-28T04:15:45;96618.56;;;6.40;100.00
71105;BME280;58760;48.716;8.962;2023-12-28T04:18:11;96621.88;;;6.42;100.00
71105;BME280;58760;48.716;8.962;2023-12-28T04:20:36;96624.09;;;6.46;100.00
71105;BME280;58760;48.716;8.962;2023-12-28T04:23:01;96629.13;;;6.40;100.00
71105;BME280;58760;48.716;8.962;2023-12-28T04:25:27;96627.72;;;6.36;100.00
71105;BME280;58760;48.716;8.962;2023-12-28T04:27:52;96627.88;;;6.34;100.00
71105;BME280;58760;48.716;8.962;2023-12-28T04:30:18;96618.38;;;6.51;100.00
71105;BME280;58760;48.716;8.962;2023-12-28T04:32:43;96618.47;;;6.59;100.00
71105;BME280;58760;48.716;8.962;2023-12-28T04:35:08;96614.88;;;6.60;100.00
71105;BME280;58760;48.716;8.962;2023-12-28T04:37:34;96615.25;;;6.65;100.00
71105;BME280;58760;48.716;8.962;2023-12-28T04:40:00;96615.44;;;6.54;100.00
71105;BME280;58760;48.716;8.962;2023-12-28T04:42:25;96614.63;;;6.53;100.00
71105;BME280;58760;48.716;8.962;2023-12-28T04:44:51;96613.88;;;6.61;100.00
71105;BME280;58760;48.716;8.962;2023-12-28T04:47:16;96610.16;;;6.54;100.00
71105;BME280;58760;48.716;8.962;2023-12-28T04:49:42;96604.59;;;6.57;100.00
71105;BME280;58760;48.716;8.962;2023-12-28T04:52:07;96602.41;;;6.52;100.00
71105;BME280;58760;48.716;8.962;2023-12-28T04:54:32;96600.13;;;6.40;100.00
71105;BME280;58760;48.716;8.962;2023-12-28T04:56:58;96613.53;;;6.09;100.00
71105;BME280;58760;48.716;8.962;2023-12-28T04:59:24;96607.78;;;6.33;100.00
71105;BME280;58760;48.716;8.962;2023-12-28T05:01:49;96607.88;;;6.41;100.00
71105;BME280;58760;48.716;8.962;2023-12-28T05:04:15;96606.22;;;6.67;100.00
71105;BME280;58760;48.716;8.962;2023-12-28T05:06:40;96601.53;;;6.61;100.00
71105;BME280;58760;48.716;8.962;2023-12-28T05:09:05;96605.09;;;6.70;100.00
71105;BME280;58760;48.716;8.962;2023-12-28T05:11:31;96617.22;;;6.63;100.00
71105;BME280;58760;48.716;8.962;2023-12-28T05:13:56;96616.34;;;6.72;100.00
71105;BME280;58760;48.716;8.962;2023-12-28T05:16:21;96614.47;;;6.82;100.00
71105;BME280;58760;48.716;8.962;2023-12-28T05:18:47;96619.94;;;6.98;100.00
71105;BME280;58760;48.716;8.962;2023-12-28T05:21:13;96626.59;;;7.02;100.00
71105;BME280;58760;48.716;8.962;2023-12-28T05:23:39;96625.69;;;7.11;100.00
71105;BME280;58760;48.716;8.962;2023-12-28T05:26:04;96618.84;;;7.18;100.00
71105;BME280;58760;48.716;8.962;2023-12-28T05:28:30;96623.03;;;7.11;100.00
71105;BME280;58760;48.716;8.962;2023-12-28T05:30:55;96628.22;;;7.03;100.00
71105;BME280;58760;48.716;8.962;2023-12-28T05:33:21;96629.13;;;6.94;100.00
71105;BME280;58760;48.716;8.962;2023-12-28T05:35:47;96646.09;;;7.09;100.00
71105;BME280;58760;48.716;8.962;2023-12-28T05:38:13;96646.03;;;7.19;100.00
71105;BME280;58760;48.716;8.962;2023-12-28T05:40:38;96633.44;;;7.13;100.00
71105;BME280;58760;48.716;8.962;2023-12-28T05:43:04;96642.41;;;7.20;100.00
71105;BME280;58760;48.716;8.962;2023-12-28T05:45:29;96655.34;;;7.41;100.00
71105;BME280;58760;48.716;8.962;2023-12-28T05:47:54;96641.38;;;7.66;100.00
71105;BME280;58760;48.716;8.962;2023-12-28T05:50:20;96635.88;;;7.77;100.00
71105;BME280;58760;48.716;8.962;2023-12-28T05:52:45;96636.34;;;7.98;100.00
71105;BME280;58760;48.716;8.962;2023-12-28T05:55:11;96647.25;;;8.21;100.00
71105;BME280;58760;48.716;8.962;2023-12-28T05:57:36;96646.03;;;8.33;100.00
71105;BME280;58760;48.716;8.962;2023-12-28T06:00:02;96649.75;;;8.22;100.00
71105;BME280;58760;48.716;8.962;2023-12-28T06:02:29;96638.03;;;8.25;100.00
71105;BME280;58760;48.716;8.962;2023-12-28T06:04:54;96635.00;;;8.37;100.00
71105;BME280;58760;48.716;8.962;2023-12-28T06:07:20;96642.81;;;8.47;100.00
71105;BME280;58760;48.716;8.962;2023-12-28T06:09:45;96645.41;;;8.65;100.00
71105;BME280;58760;48.716;8.962;2023-12-28T06:12:11;96642.25;;;8.69;100.00
71105;BME280;58760;48.716;8.962;2023-12-28T06:14:36;96642.22;;;8.61;100.00
71105;BME280;58760;48.716;8.962;2023-12-28T06:17:02;96641.09;;;8.64;100.00
71105;BME280;58760;48.716;8.962;2023-12-28T06:19:27;96665.41;;;8.67;100.00
71105;BME280;58760;48.716;8.962;2023-12-28T06:21:53;96663.53;;;8.60;100.00
71105;BME280;58760;48.716;8.962;2023-12-28T06:24:19;96652.72;;;8.79;100.00
71105;BME280;58760;48.716;8.962;2023-12-28T06:26:44;96655.16;;;9.06;100.00
71105;BME280;58760;48.716;8.962;2023-12-28T06:29:10;96661.09;;;9.00;100.00
71105;BME280;58760;48.716;8.962;2023-12-28T06:31:36;96656.06;;;8.81;100.00
71105;BME280;58760;48.716;8.962;2023-12-28T06:34:06;96644.03;;;8.61;100.00
71105;BME280;58760;48.716;8.962;2023-12-28T06:36:32;96652.59;;;8.55;100.00
71105;BME280;58760;48.716;8.962;2023-12-28T06:38:58;96662.81;;;8.50;100.00
71105;BME280;58760;48.716;8.962;2023-12-28T06:41:26;96664.00;;;8.55;100.00
71105;BME280;58760;48.716;8.962;2023-12-28T06:43:52;96678.09;;;8.64;100.00
71105;BME280;58760;48.716;8.962;2023-12-28T06:46:18;96669.34;;;8.63;100.00
71105;BME280;58760;48.716;8.962;2023-12-28T06:48:43;96676.44;;;8.63;100.00
71105;BME280;58760;48.716;8.962;2023-12-28T06:51:10;96675.47;;;8.64;100.00
71105;BME280;58760;48.716;8.962;2023-12-28T06:53:35;96663.19;;;8.55;100.00
71105;BME280;58760;48.716;8.962;2023-12-28T06:56:00;96678.94;;;8.64;100.00
71105;BME280;58760;48.716;8.962;2023-12-28T06:58:26;96676.09;;;8.58;100.00
71105;BME280;58760;48.716;8.962;2023-12-28T07:00:51;96668.81;;;8.60;100.00
71105;BME280;58760;48.716;8.962;2023-12-28T07:03:17;96672.13;;;8.62;100.00
71105;BME280;58760;48.716;8.962;2023-12-28T07:05:42;96678.59;;;8.93;100.00
71105;BME280;58760;48.716;8.962;2023-12-28T07:08:08;96687.41;;;8.76;100.00
71105;BME280;58760;48.716;8.962;2023-12-28T07:10:33;96683.63;;;8.78;100.00
71105;BME280;58760;48.716;8.962;2023-12-28T07:12:59;96688.19;;;8.94;100.00
71105;BME280;58760;48.716;8.962;2023-12-28T07:15:24;96687.81;;;8.89;100.00
71105;BME280;58760;48.716;8.962;2023-12-28T07:17:50;96685.63;;;8.84;100.00
71105;BME280;58760;48.716;8.962;2023-12-28T07:20:16;96689.28;;;8.83;100.00
71105;BME280;58760;48.716;8.962;2023-12-28T07:22:41;96686.47;;;8.85;100.00
71105;BME280;58760;48.716;8.962;2023-12-28T07:25:06;96688.47;;;8.91;100.00
71105;BME280;58760;48.716;8.962;2023-12-28T07:27:33;96687.22;;;9.03;100.00
71105;BME280;58760;48.716;8.962;2023-12-28T07:29:59;96692.22;;;9.06;100.00
71105;BME280;58760;48.716;8.962;2023-12-28T07:32:25;96692.34;;;8.97;100.00
71105;BME280;58760;48.716;8.962;2023-12-28T07:34:54;96699.88;;;8.83;100.00
71105;BME280;58760;48.716;8.962;2023-12-28T07:37:19;96690.63;;;8.54;100.00
71105;BME280;58760;48.716;8.962;2023-12-28T07:39:45;96689.25;;;8.50;100.00
71105;BME280;58760;48.716;8.962;2023-12-28T07:42:10;96701.59;;;8.41;100.00
71105;BME280;58760;48.716;8.962;2023-12-28T07:44:35;96707.72;;;8.42;100.00
71105;BME280;58760;48.716;8.962;2023-12-28T07:47:01;96703.06;;;8.61;100.00
71105;BME280;58760;48.716;8.962;2023-12-28T07:49:27;96705.22;;;8.66;100.00
71105;BME280;58760;48.716;8.962;2023-12-28T07:51:52;96708.03;;;8.64;100.00
71105;BME280;58760;48.716;8.962;2023-12-28T07:54:18;96709.06;;;8.71;100.00
71105;BME280;58760;48.716;8.962;2023-12-28T07:56:43;96712.22;;;8.75;100.00
71105;BME280;58760;48.716;8.962;2023-12-28T07:59:09;96707.63;;;8.77;100.00
71105;BME280;58760;48.716;8.962;2023-12-28T08:01:35;96702.66;;;8.82;100.00
71105;BME280;58760;48.716;8.962;2023-12-28T08:04:00;96712.28;;;8.83;100.00
71105;BME280;58760;48.716;8.962;2023-12-28T08:06:27;96713.88;;;8.76;100.00
71105;BME280;58760;48.716;8.962;2023-12-28T08:08:54;96714.66;;;8.68;100.00
71105;BME280;58760;48.716;8.962;2023-12-28T08:11:19;96722.66;;;8.51;100.00
71105;BME280;58760;48.716;8.962;2023-12-28T08:13:45;96730.69;;;8.67;100.00
71105;BME280;58760;48.716;8.962;2023-12-28T08:16:10;96728.78;;;8.77;100.00
71105;BME280;58760;48.716;8.962;2023-12-28T08:18:35;96726.94;;;9.11;100.00
71105;BME280;58760;48.716;8.962;2023-12-28T08:21:01;96731.47;;;9.19;100.00
71105;BME280;58760;48.716;8.962;2023-12-28T08:23:26;96729.97;;;9.16;100.00
71105;BME280;58760;48.716;8.962;2023-12-28T08:25:51;96739.53;;;9.09;100.00
71105;BME280;58760;48.716;8.962;2023-12-28T08:28:17;96735.00;;;9.35;100.00
71105;BME280;58760;48.716;8.962;2023-12-28T08:30:42;96742.31;;;9.41;100.00
71105;BME280;58760;48.716;8.962;2023-12-28T08:33:08;96743.94;;;9.34;100.00
71105;BME280;58760;48.716;8.962;2023-12-28T08:35:33;96749.59;;;9.39;100.00
71105;BME280;58760;48.716;8.962;2023-12-28T08:37:59;96739.34;;;9.44;100.00
71105;BME280;58760;48.716;8.962;2023-12-28T08:40:24;96749.28;;;9.51;100.00
71105;BME280;58760;48.716;8.962;2023-12-28T08:42:50;96752.06;;;9.41;100.00
71105;BME280;58760;48.716;8.962;2023-12-28T08:45:16;96753.34;;;9.29;100.00
71105;BME280;58760;48.716;8.962;2023-12-28T08:47:41;96742.84;;;9.11;100.00
71105;BME280;58760;48.716;8.962;2023-12-28T08:50:07;96747.34;;;9.19;100.00
71105;BME280;58760;48.716;8.962;2023-12-28T08:52:32;96749.53;;;9.23;100.00
71105;BME280;58760;48.716;8.962;2023-12-28T08:54:58;96750.56;;;9.38;100.00
71105;BME280;58760;48.716;8.962;2023-12-28T08:57:23;96734.88;;;9.45;100.00
71105;BME280;58760;48.716;8.962;2023-12-28T08:59:49;96740.53;;;9.66;100.00
71105;BME280;58760;48.716;8.962;2023-12-28T09:02:14;96745.00;;;9.58;100.00
71105;BME280;58760;48.716;8.962;2023-12-28T09:04:39;96746.50;;;9.52;100.00
71105;BME280;58760;48.716;8.962;2023-12-28T09:07:05;96748.97;;;9.54;100.00
71105;BME280;58760;48.716;8.962;2023-12-28T09:09:31;96754.94;;;9.56;100.00
71105;BME280;58760;48.716;8.962;2023-12-28T09:11:56;96748.78;;;9.47;100.00
71105;BME280;58760;48.716;8.962;2023-12-28T09:14:21;96758.34;;;9.40;100.00
71105;BME280;58760;48.716;8.962;2023-12-28T09:16:47;96758.53;;;9.46;100.00
71105;BME280;58760;48.716;8.962;2023-12-28T09:19:13;96764.66;;;9.47;100.00
71105;BME280;58760;48.716;8.962;2023-12-28T09:21:39;96765.34;;;9.49;100.00
71105;BME280;58760;48.716;8.962;2023-12-28T09:24:06;96788.00;;;9.43;100.00
71105;BME280;58760;48.716;8.962;2023-12-28T09:26:33;96785.16;;;9.37;100.00
71105;BME280;58760;48.716;8.962;2023-12-28T09:28:58;96781.38;;;9.39;100.00
71105;BME280;58760;48.716;8.962;2023-12-28T09:31:24;96775.16;;;9.65;100.00
71105;BME280;58760;48.716;8.962;2023-12-28T09:33:49;96785.91;;;9.63;100.00
71105;BME280;58760;48.716;8.962;2023-12-28T09:36:14;96788.75;;;9.62;100.00
71105;BME280;58760;48.716;8.962;2023-12-28T09:38:41;96794.38;;;9.59;100.00
71105;BME280;58760;48.716;8.962;2023-12-28T09:41:12;96799.34;;;9.62;100.00
71105;BME280;58760;48.716;8.962;2023-12-28T09:46:24;96801.81;;;9.55;100.00
71105;BME280;58760;48.716;8.962;2023-12-28T09:48:51;96807.75;;;9.57;100.00
71105;BME280;58760;48.716;8.962;2023-12-28T09:51:19;96810.22;;;9.51;100.00
71105;BME280;58760;48.716;8.962;2023-12-28T09:53:45;96808.91;;;9.55;100.00
71105;BME280;58760;48.716;8.962;2023-12-28T09:56:12;96799.16;;;9.55;100.00
71105;BME280;58760;48.716;8.962;2023-12-28T09:58:39;96804.84;;;9.68;100.00
71105;BME280;58760;48.716;8.962;2023-12-28T10:01:06;96801.72;;;9.81;100.00
71105;BME280;58760;48.716;8.962;2023-12-28T10:03:32;96794.59;;;9.89;100.00
71105;BME280;58760;48.716;8.962;2023-12-28T10:05:58;96797.25;;;9.89;100.00
71105;BME280;58760;48.716;8.962;2023-12-28T10:08:23;96801.59;;;9.98;100.00
71105;BME280;58760;48.716;8.962;2023-12-28T10:10:49;96792.78;;;9.90;100.00
71105;BME280;58760;48.716;8.962;2023-12-28T10:13:20;96790.13;;;9.90;100.00
71105;BME280;58760;48.716;8.962;2023-12-28T10:15:46;96797.47;;;10.04;100.00
71105;BME280;58760;48.716;8.962;2023-12-28T10:18:12;96790.22;;;10.14;100.00
71105;BME280;58760;48.716;8.962;2023-12-28T10:20:38;96783.22;;;10.13;100.00
71105;BME280;58760;48.716;8.962;2023-12-28T10:23:04;96784.94;;;10.14;100.00
71105;BME280;58760;48.716;8.962;2023-12-28T10:25:31;96785.72;;;10.07;100.00
71105;BME280;58760;48.716;8.962;2023-12-28T10:27:57;96785.03;;;10.05;100.00
71105;BME280;58760;48.716;8.962;2023-12-28T10:30:23;96796.13;;;10.08;100.00
71105;BME280;58760;48.716;8.962;2023-12-28T10:32:48;96809.75;;;10.13;100.00
71105;BME280;58760;48.716;8.962;2023-12-28T10:35:14;96789.56;;;10.20;100.00
71105;BME280;58760;48.716;8.962;2023-12-28T10:37:41;96794.22;;;10.26;100.00
71105;BME280;58760;48.716;8.962;2023-12-28T10:40:07;96788.41;;;10.31;100.00
71105;BME280;58760;48.716;8.962;2023-12-28T10:42:52;96776.81;;;10.24;100.00
71105;BME280;58760;48.716;8.962;2023-12-28T10:45:19;96781.28;;;10.31;100.00
71105;BME280;58760;48.716;8.962;2023-12-28T10:48:11;96767.19;;;10.39;100.00
71105;BME280;58760;48.716;8.962;2023-12-28T10:50:47;96756.75;;;10.45;100.00
71105;BME280;58760;48.716;8.962;2023-12-28T10:53:38;96761.38;;;10.52;100.00
71105;BME280;58760;48.716;8.962;2023-12-28T11:01:37;96762.88;;;10.62;100.00
71105;BME280;58760;48.716;8.962;2023-12-28T11:04:08;96757.91;;;10.59;100.00
71105;BME280;58760;48.716;8.962;2023-12-28T11:06:35;96745.44;;;10.68;100.00
71105;BME280;58760;48.716;8.962;2023-12-28T11:09:01;96748.09;;;10.68;100.00
71105;BME280;58760;48.716;8.962;2023-12-28T11:11:29;96753.75;;;10.73;100.00
71105;BME280;58760;48.716;8.962;2023-12-28T11:13:55;96750.44;;;10.63;100.00
71105;BME280;58760;48.716;8.962;2023-12-28T11:16:22;96752.56;;;10.67;100.00
71105;BME280;58760;48.716;8.962;2023-12-28T11:18:48;96752.09;;;10.64;100.00
71105;BME280;58760;48.716;8.962;2023-12-28T11:21:14;96758.72;;;10.52;100.00
71105;BME280;58760;48.716;8.962;2023-12-28T11:23:40;96752.63;;;10.43;100.00
71105;BME280;58760;48.716;8.962;2023-12-28T11:26:18;96747.16;;;10.36;100.00
71105;BME280;58760;48.716;8.962;2023-12-28T11:28:44;96750.28;;;10.40;100.00
71105;BME280;58760;48.716;8.962;2023-12-28T11:31:18;96755.59;;;10.48;100.00
71105;BME280;58760;48.716;8.962;2023-12-28T11:33:47;96741.16;;;10.42;100.00
71105;BME280;58760;48.716;8.962;2023-12-28T11:36:24;96744.66;;;10.43;100.00
71105;BME280;58760;48.716;8.962;2023-12-28T11:38:53;96742.66;;;10.37;100.00
71105;BME280;58760;48.716;8.962;2023-12-28T11:41:20;96743.81;;;10.42;100.00
71105;BME280;58760;48.716;8.962;2023-12-28T11:43:51;96750.28;;;10.40;100.00
71105;BME280;58760;48.716;8.962;2023-12-28T11:46:18;96744.13;;;10.47;100.00
71105;BME280;58760;48.716;8.962;2023-12-28T11:48:44;96740.84;;;10.45;100.00
71105;BME280;58760;48.716;8.962;2023-12-28T11:51:10;96741.31;;;10.49;100.00
71105;BME280;58760;48.716;8.962;2023-12-28T11:53:36;96741.81;;;10.44;100.00
71105;BME280;58760;48.716;8.962;2023-12-28T11:56:01;96746.47;;;10.26;100.00
71105;BME280;58760;48.716;8.962;2023-12-28T11:58:28;96750.78;;;10.19;100.00
71105;BME280;58760;48.716;8.962;2023-12-28T12:00:53;96751.59;;;10.20;100.00
71105;BME280;58760;48.716;8.962;2023-12-28T12:03:18;96744.00;;;10.17;100.00
71105;BME280;58760;48.716;8.962;2023-12-28T12:05:44;96749.63;;;10.14;100.00
71105;BME280;58760;48.716;8.962;2023-12-28T12:08:10;96746.97;;;10.14;100.00
71105;BME280;58760;48.716;8.962;2023-12-28T12:10:39;96743.16;;;10.16;100.00
71105;BME280;58760;48.716;8.962;2023-12-28T12:13:04;96745.50;;;10.27;100.00
71105;BME280;58760;48.716;8.962;2023-12-28T12:15:30;96742.16;;;10.33;100.00
71105;BME280;58760;48.716;8.962;2023-12-28T12:17:56;96740.81;;;10.37;100.00
71105;BME280;58760;48.716;8.962;2023-12-28T12:20:22;96725.75;;;10.46;100.00
71105;BME280;58760;48.716;8.962;2023-12-28T12:22:48;96731.56;;;10.49;100.00
71105;BME280;58760;48.716;8.962;2023-12-28T12:25:14;96724.56;;;10.48;100.00
71105;BME280;58760;48.716;8.962;2023-12-28T12:27:41;96714.63;;;10.59;100.00
71105;BME280;58760;48.716;8.962;2023-12-28T12:30:07;96716.94;;;10.62;100.00
71105;BME280;58760;48.716;8.962;2023-12-28T12:32:34;96714.94;;;10.64;100.00
71105;BME280;58760;48.716;8.962;2023-12-28T12:35:02;96721.25;;;10.55;100.00
71105;BME280;58760;48.716;8.962;2023-12-28T12:37:28;96719.28;;;10.48;100.00
71105;BME280;58760;48.716;8.962;2023-12-28T12:39:54;96709.81;;;10.54;100.00
71105;BME280;58760;48.716;8.962;2023-12-28T12:42:19;96712.97;;;10.49;100.00
71105;BME280;58760;48.716;8.962;2023-12-28T12:44:45;96716.94;;;10.45;100.00
71105;BME280;58760;48.716;8.962;2023-12-28T12:47:12;96716.78;;;10.47;100.00
71105;BME280;58760;48.716;8.962;2023-12-28T12:49:38;96711.63;;;10.54;100.00
71105;BME280;58760;48.716;8.962;2023-12-28T12:52:03;96722.22;;;10.54;100.00
71105;BME280;58760;48.716;8.962;2023-12-28T12:54:29;96710.97;;;10.52;100.00
71105;BME280;58760;48.716;8.962;2023-12-28T12:56:54;96718.97;;;10.43;100.00
71105;BME280;58760;48.716;8.962;2023-12-28T12:59:20;96713.84;;;10.34;100.00
71105;BME280;58760;48.716;8.962;2023-12-28T13:01:47;96712.81;;;10.35;100.00
71105;BME280;58760;48.716;8.962;2023-12-28T13:04:17;96717.63;;;10.39;100.00